sensor_id;sensor_type;location;lat;lon;timestamp;pressure;altitude;pressure_sealevel;temperature;humidity
11712;BME280;5912;51.034;6.984;2022-12-29T00:01:31;98951.22;;;8.04;100.00
11712;BME280;5912;51.034;6.984;2022-12-29T00:03:57;98942.56;;;8.03;100.00
11712;BME280;5912;51.034;6.984;2022-12-29T00:06:23;98939.63;;;8.00;100.00
11712;BME280;5912;51.034;6.984;2022-12-29T00:08:48;98934.41;;;8.00;100.00
11712;BME280;5912;51.034;6.984;2022-12-29T00:11:16;98922.56;;;7.97;100.00
11712;BME280;5912;51.034;6.984;2022-12-29T00:13:42;98908.72;;;7.97;100.00
11712;BME280;5912;51.034;6.984;2022-12-29T00:16:27;98908.94;;;7.95;100.00
11712;BME280;5912;51.034;6.984;2022-12-29T00:18:53;98912.22;;;7.91;100.00
11712;BME280;5912;51.034;6.984;2022-12-29T00:21:20;98912.78;;;7.93;100.00
11712;BME280;5912;51.034;6.984;2022-12-29T00:24:04;98905.41;;;7.90;100.00
11712;BME280;5912;51.034;6.984;2022-12-29T00:26:58;98902.31;;;7.93;100.00
11712;BME280;5912;51.034;6.984;2022-12-29T00:29:51;98892.44;;;7.83;100.00
11712;BME280;5912;51.034;6.984;2022-12-29T00:32:35;98898.91;;;7.92;100.00
11712;BME280;5912;51.034;6.984;2022-12-29T00:35:34;98890.81;;;7.94;100.00
11712;BME280;5912;51.034;6.984;2022-12-29T00:38:21;98896.06;;;7.94;100.00
11712;BME280;5912;51.034;6.984;2022-12-29T00:41:05;98884.59;;;7.95;100.00
11712;BME280;5912;51.034;6.984;2022-12-29T00:43:49;98890.41;;;7.97;100.00
11712;BME280;5912;51.034;6.984;2022-12-29T00:46:39;98888.31;;;7.99;100.00
11712;BME280;5912;51.034;6.984;2022-12-29T00:49:06;98891.28;;;8.02;100.00
11712;BME280;5912;51.034;6.984;2022-12-29T00:51:51;98889.00;;;8.06;100.00
11712;BME280;5912;51.034;6.984;2022-12-29T00:54:17;98878.09;;;8.09;100.00
11712;BME280;5912;51.034;6.984;2022-12-29T00:56:43;98856.38;;;7.97;100.00
11712;BME280;5912;51.034;6.984;2022-12-29T00:59:10;98877.16;;;8.15;100.00
11712;BME280;5912;51.034;6.984;2022-12-29T01:01:36;98869.31;;;8.15;100.00
11712;BME280;5912;51.034;6.984;2022-12-29T01:04:03;98870.56;;;8.12;100.00
11712;BME280;5912;51.034;6.984;2022-12-29T01:06:29;98882.16;;;8.16;100.00
11712;BME280;5912;51.034;6.984;2022-12-29T01:08:54;98888.19;;;8.17;100.00
11712;BME280;5912;51.034;6.984;2022-12-29T01:11:39;98879.44;;;8.11;100.00
11712;BME280;5912;51.034;6.984;2022-12-29T01:29:53;98892.16;;;8.42;100.00
11712;BME280;5912;51.034;6.984;2022-12-29T01:32:21;98885.38;;;8.58;100.00
11712;BME280;5912;51.034;6.984;2022-12-29T01:34:46;98871.34;;;8.64;100.00
11712;BME280;5912;51.034;6.984;2022-12-29T01:37:12;98874.41;;;8.72;99.93
11712;BME280;5912;51.034;6.984;2022-12-29T01:39:37;98872.22;;;8.81;98.88
11712;BME280;5912;51.034;6.984;2022-12-29T01:42:02;98884.63;;;8.85;99.33
11712;BME280;5912;51.034;6.984;2022-12-29T01:47:23;98880.38;;;8.84;98.56
11712;BME280;5912;51.034;6.984;2022-12-29T01:49:53;98885.38;;;8.86;98.59
11712;BME280;5912;51.034;6.984;2022-12-29T01:52:20;98875.47;;;8.88;97.72
11712;BME280;5912;51.034;6.984;2022-12-29T01:54:51;98871.84;;;8.89;97.09
11712;BME280;5912;51.034;6.984;2022-12-29T01:57:27;98873.44;;;8.90;96.26
11712;BME280;5912;51.034;6.984;2022-12-29T02:00:07;98865.66;;;8.95;93.80
11712;BME280;5912;51.034;6.984;2022-12-29T02:02:34;98859.84;;;8.93;93.12
11712;BME280;5912;51.034;6.984;2022-12-29T02:05:03;98856.59;;;9.02;91.40
11712;BME280;5912;51.034;6.984;2022-12-29T02:07:31;98842.16;;;9.00;89.73
11712;BME280;5912;51.034;6.984;2022-12-29T02:09:56;98805.34;;;8.78;89.89
11712;BME280;5912;51.034;6.984;2022-12-29T02:12:23;98828.66;;;8.91;87.89
11712;BME280;5912;51.034;6.984;2022-12-29T02:14:54;98847.31;;;9.12;86.95
11712;BME280;5912;51.034;6.984;2022-12-29T02:17:37;98846.63;;;9.16;86.02
11712;BME280;5912;51.034;6.984;2022-12-29T02:20:47;98843.53;;;9.19;86.08
11712;BME280;5912;51.034;6.984;2022-12-29T02:26:35;98843.66;;;9.29;83.93
11712;BME280;5912;51.034;6.984;2022-12-29T02:34:50;98839.94;;;9.42;82.00
11712;BME280;5912;51.034;6.984;2022-12-29T02:37:24;98830.31;;;9.47;81.58
11712;BME280;5912;51.034;6.984;2022-12-29T02:42:59;98824.91;;;9.37;81.21
11712;BME280;5912;51.034;6.984;2022-12-29T02:50:28;98821.81;;;9.40;80.28
11712;BME280;5912;51.034;6.984;2022-12-29T02:53:02;98812.78;;;9.48;80.17
11712;BME280;5912;51.034;6.984;2022-12-29T02:55:30;98819.34;;;9.50;79.81
11712;BME280;5912;51.034;6.984;2022-12-29T02:58:19;98816.66;;;9.62;79.92
11712;BME280;5912;51.034;6.984;2022-12-29T03:01:13;98814.34;;;9.65;79.94
11712;BME280;5912;51.034;6.984;2022-12-29T03:12:01;98792.53;;;9.81;78.70
11712;BME280;5912;51.034;6.984;2022-12-29T03:15:04;98791.53;;;9.87;78.66
11712;BME280;5912;51.034;6.984;2022-12-29T03:17:56;98796.47;;;9.84;79.08
11712;BME280;5912;51.034;6.984;2022-12-29T03:20:28;98792.03;;;9.84;79.82
11712;BME280;5912;51.034;6.984;2022-12-29T03:23:00;98778.91;;;9.84;80.30
11712;BME280;5912;51.034;6.984;2022-12-29T03:25:32;98776.28;;;9.84;80.72
11712;BME280;5912;51.034;6.984;2022-12-29T03:28:02;98785.19;;;9.83;81.24
11712;BME280;5912;51.034;6.984;2022-12-29T03:30:31;98762.69;;;9.87;81.53
11712;BME280;5912;51.034;6.984;2022-12-29T03:33:00;98772.31;;;9.82;82.35
11712;BME280;5912;51.034;6.984;2022-12-29T03:35:30;98771.75;;;9.80;82.41
11712;BME280;5912;51.034;6.984;2022-12-29T03:38:09;98764.09;;;9.73;82.35
11712;BME280;5912;51.034;6.984;2022-12-29T03:40:38;98772.53;;;9.80;83.24
11712;BME280;5912;51.034;6.984;2022-12-29T03:43:05;98773.03;;;9.77;83.07
11712;BME280;5912;51.034;6.984;2022-12-29T03:45:30;98778.91;;;9.84;82.98
11712;BME280;5912;51.034;6.984;2022-12-29T03:47:55;98772.78;;;9.79;83.58
11712;BME280;5912;51.034;6.984;2022-12-29T03:50:20;98774.69;;;9.83;82.89
11712;BME280;5912;51.034;6.984;2022-12-29T03:52:46;98753.50;;;9.90;82.94
11712;BME280;5912;51.034;6.984;2022-12-29T03:55:11;98762.59;;;9.82;83.73
11712;BME280;5912;51.034;6.984;2022-12-29T03:57:36;98736.94;;;9.84;83.71
11712;BME280;5912;51.034;6.984;2022-12-29T04:00:04;98758.94;;;9.83;83.75
11712;BME280;5912;51.034;6.984;2022-12-29T04:02:30;98763.34;;;9.78;83.81
11712;BME280;5912;51.034;6.984;2022-12-29T04:04:55;98760.41;;;9.74;83.98
11712;BME280;5912;51.034;6.984;2022-12-29T04:07:20;98751.81;;;9.79;83.61
11712;BME280;5912;51.034;6.984;2022-12-29T04:09:46;98744.72;;;9.79;83.70
11712;BME280;5912;51.034;6.984;2022-12-29T04:12:11;98749.50;;;9.82;83.56
11712;BME280;5912;51.034;6.984;2022-12-29T04:14:36;98745.03;;;9.83;82.83
11712;BME280;5912;51.034;6.984;2022-12-29T04:17:01;98739.16;;;9.76;82.99
11712;BME280;5912;51.034;6.984;2022-12-29T04:19:27;98735.25;;;9.78;82.80
11712;BME280;5912;51.034;6.984;2022-12-29T04:21:52;98739.72;;;9.78;82.88
11712;BME280;5912;51.034;6.984;2022-12-29T04:24:17;98734.41;;;9.73;82.88
11712;BME280;5912;51.034;6.984;2022-12-29T04:26:43;98671.75;;;9.33;82.90
11712;BME280;5912;51.034;6.984;2022-12-29T04:29:08;98739.91;;;9.71;82.90
11712;BME280;5912;51.034;6.984;2022-12-29T04:31:33;98739.34;;;9.69;83.21
11712;BME280;5912;51.034;6.984;2022-12-29T04:33:58;98736.97;;;9.68;82.88
11712;BME280;5912;51.034;6.984;2022-12-29T04:36:25;98721.72;;;9.65;82.88
11712;BME280;5912;51.034;6.984;2022-12-29T04:38:50;98741.78;;;9.76;82.19
11712;BME280;5912;51.034;6.984;2022-12-29T04:41:16;98740.75;;;9.77;82.26
11712;BME280;5912;51.034;6.984;2022-12-29T04:43:41;98743.53;;;9.70;82.55
11712;BME280;5912;51.034;6.984;2022-12-29T04:46:06;98760.06;;;9.87;81.63
11712;BME280;5912;51.034;6.984;2022-12-29T04:48:32;98753.44;;;9.85;81.63
11712;BME280;5912;51.034;6.984;2022-12-29T04:50:57;98768.16;;;9.86;81.23
11712;BME280;5912;51.034;6.984;2022-12-29T04:53:22;98765.81;;;9.89;81.54
11712;BME280;5912;51.034;6.984;2022-12-29T04:55:49;98767.94;;;9.87;81.57
11712;BME280;5912;51.034;6.984;2022-12-29T04:58:15;98768.94;;;9.86;81.08
11712;BME280;5912;51.034;6.984;2022-12-29T05:00:40;98762.28;;;9.79;81.20
11712;BME280;5912;51.034;6.984;2022-12-29T05:03:05;98754.66;;;9.77;81.39
11712;BME280;5912;51.034;6.984;2022-12-29T05:05:30;98761.97;;;9.75;80.99
11712;BME280;5912;51.034;6.984;2022-12-29T05:07:56;98760.09;;;9.71;81.13
11712;BME280;5912;51.034;6.984;2022-12-29T05:10:21;98759.78;;;9.67;80.65
11712;BME280;5912;51.034;6.984;2022-12-29T05:12:46;98754.03;;;9.70;80.19
11712;BME280;5912;51.034;6.984;2022-12-29T05:15:12;98756.91;;;9.69;80.41
11712;BME280;5912;51.034;6.984;2022-12-29T05:17:38;98751.38;;;9.65;80.02
11712;BME280;5912;51.034;6.984;2022-12-29T05:20:04;98753.50;;;9.68;79.90
11712;BME280;5912;51.034;6.984;2022-12-29T05:22:30;98784.50;;;9.71;78.79
11712;BME280;5912;51.034;6.984;2022-12-29T05:24:55;98777.44;;;9.72;79.36
11712;BME280;5912;51.034;6.984;2022-12-29T05:27:21;98779.50;;;9.70;79.49
11712;BME280;5912;51.034;6.984;2022-12-29T05:29:46;98778.56;;;9.59;79.82
11712;BME280;5912;51.034;6.984;2022-12-29T05:32:11;98781.19;;;9.59;79.39
11712;BME280;5912;51.034;6.984;2022-12-29T05:34:36;98772.22;;;9.55;78.75
11712;BME280;5912;51.034;6.984;2022-12-29T05:37:02;98766.97;;;9.55;78.17
11712;BME280;5912;51.034;6.984;2022-12-29T05:39:28;98782.53;;;9.62;77.39
11712;BME280;5912;51.034;6.984;2022-12-29T05:41:53;98785.97;;;9.62;77.22
11712;BME280;5912;51.034;6.984;2022-12-29T05:44:19;98789.84;;;9.60;76.05
11712;BME280;5912;51.034;6.984;2022-12-29T05:46:44;98797.47;;;9.61;75.72
11712;BME280;5912;51.034;6.984;2022-12-29T05:49:09;98795.81;;;9.55;75.26
11712;BME280;5912;51.034;6.984;2022-12-29T05:51:34;98783.34;;;9.62;74.54
11712;BME280;5912;51.034;6.984;2022-12-29T05:54:00;98794.13;;;9.66;73.87
11712;BME280;5912;51.034;6.984;2022-12-29T05:56:25;98792.06;;;9.68;74.51
11712;BME280;5912;51.034;6.984;2022-12-29T05:58:50;98804.13;;;9.69;74.43
11712;BME280;5912;51.034;6.984;2022-12-29T06:01:16;98797.63;;;9.71;73.42
11712;BME280;5912;51.034;6.984;2022-12-29T06:03:41;98784.75;;;9.70;73.03
11712;BME280;5912;51.034;6.984;2022-12-29T06:06:07;98803.03;;;9.81;72.90
11712;BME280;5912;51.034;6.984;2022-12-29T06:08:32;98789.34;;;9.79;72.94
11712;BME280;5912;51.034;6.984;2022-12-29T06:10:57;98804.03;;;9.80;72.67
11712;BME280;5912;51.034;6.984;2022-12-29T06:13:22;98792.53;;;9.81;72.95
11712;BME280;5912;51.034;6.984;2022-12-29T06:15:49;98804.53;;;9.77;71.94
11712;BME280;5912;51.034;6.984;2022-12-29T06:18:14;98793.22;;;9.77;72.56
11712;BME280;5912;51.034;6.984;2022-12-29T06:20:40;98793.94;;;9.72;70.66
11712;BME280;5912;51.034;6.984;2022-12-29T06:23:05;98769.44;;;9.62;70.30
11712;BME280;5912;51.034;6.984;2022-12-29T06:25:30;98794.03;;;9.77;69.69
11712;BME280;5912;51.034;6.984;2022-12-29T06:27:57;98790.31;;;9.73;69.33
11712;BME280;5912;51.034;6.984;2022-12-29T06:30:22;98800.16;;;9.83;68.73
11712;BME280;5912;51.034;6.984;2022-12-29T06:32:48;98800.06;;;9.78;68.61
11712;BME280;5912;51.034;6.984;2022-12-29T06:35:13;98808.69;;;9.73;68.68
11712;BME280;5912;51.034;6.984;2022-12-29T06:37:39;98805.84;;;9.80;68.64
11712;BME280;5912;51.034;6.984;2022-12-29T06:40:04;98818.44;;;9.78;68.16
11712;BME280;5912;51.034;6.984;2022-12-29T06:42:30;98814.38;;;9.70;69.53
11712;BME280;5912;51.034;6.984;2022-12-29T06:44:55;98827.97;;;9.67;69.71
11712;BME280;5912;51.034;6.984;2022-12-29T06:47:23;98809.00;;;9.60;69.90
11712;BME280;5912;51.034;6.984;2022-12-29T06:49:48;98807.81;;;9.51;70.24
11712;BME280;5912;51.034;6.984;2022-12-29T06:52:14;98826.25;;;9.56;70.84
11712;BME280;5912;51.034;6.984;2022-12-29T06:54:39;98838.28;;;9.52;71.85
11712;BME280;5912;51.034;6.984;2022-12-29T06:57:04;98827.94;;;9.46;72.35
11712;BME280;5912;51.034;6.984;2022-12-29T06:59:30;98821.81;;;9.40;73.33
11712;BME280;5912;51.034;6.984;2022-12-29T07:01:55;98829.69;;;9.40;73.85
11712;BME280;5912;51.034;6.984;2022-12-29T07:04:20;98829.69;;;9.40;74.09
11712;BME280;5912;51.034;6.984;2022-12-29T07:06:45;98833.91;;;9.41;74.58
11712;BME280;5912;51.034;6.984;2022-12-29T07:09:11;98847.03;;;9.41;74.51
11712;BME280;5912;51.034;6.984;2022-12-29T07:11:36;98844.41;;;9.41;74.63
11712;BME280;5912;51.034;6.984;2022-12-29T07:14:02;98835.66;;;9.36;74.47
11712;BME280;5912;51.034;6.984;2022-12-29T07:16:28;98836.78;;;9.40;73.44
11712;BME280;5912;51.034;6.984;2022-12-29T07:18:54;98851.22;;;9.42;73.83
11712;BME280;5912;51.034;6.984;2022-12-29T07:21:20;98852.81;;;9.43;73.53
11712;BME280;5912;51.034;6.984;2022-12-29T07:23:45;98847.03;;;9.41;73.91
11712;BME280;5912;51.034;6.984;2022-12-29T07:26:13;98857.19;;;9.38;73.79
11712;BME280;5912;51.034;6.984;2022-12-29T07:28:38;98866.16;;;9.42;73.68
11712;BME280;5912;51.034;6.984;2022-12-29T07:31:05;98860.13;;;9.41;73.37
11712;BME280;5912;51.034;6.984;2022-12-29T07:33:31;98878.00;;;9.44;73.74
11712;BME280;5912;51.034;6.984;2022-12-29T07:35:57;98880.63;;;9.44;72.82
11712;BME280;5912;51.034;6.984;2022-12-29T07:38:22;98875.63;;;9.43;73.44
11712;BME280;5912;51.034;6.984;2022-12-29T07:40:48;98875.31;;;9.39;73.83
11712;BME280;5912;51.034;6.984;2022-12-29T07:43:13;98883.66;;;9.36;74.03
11712;BME280;5912;51.034;6.984;2022-12-29T07:45:38;98891.44;;;9.31;74.20
11712;BME280;5912;51.034;6.984;2022-12-29T07:48:05;98900.44;;;9.35;74.37
11712;BME280;5912;51.034;6.984;2022-12-29T07:50:33;98896.28;;;9.39;74.30
11712;BME280;5912;51.034;6.984;2022-12-29T07:52:58;98913.69;;;9.45;74.17
11712;BME280;5912;51.034;6.984;2022-12-29T07:55:26;98907.97;;;9.48;73.60
11712;BME280;5912;51.034;6.984;2022-12-29T07:57:56;98912.72;;;9.51;74.18
11712;BME280;5912;51.034;6.984;2022-12-29T08:00:22;98916.63;;;9.49;74.62
11712;BME280;5912;51.034;6.984;2022-12-29T08:02:47;98917.03;;;9.41;74.74
11712;BME280;5912;51.034;6.984;2022-12-29T08:05:12;98924.66;;;9.42;74.87
11712;BME280;5912;51.034;6.984;2022-12-29T08:07:38;98920.44;;;9.41;74.84
11712;BME280;5912;51.034;6.984;2022-12-29T08:10:04;98924.56;;;9.37;74.20
11712;BME280;5912;51.034;6.984;2022-12-29T08:12:29;98923.47;;;9.33;73.53
11712;BME280;5912;51.034;6.984;2022-12-29T08:14:55;98921.47;;;9.40;73.88
11712;BME280;5912;51.034;6.984;2022-12-29T08:17:20;98927.50;;;9.41;73.67
11712;BME280;5912;51.034;6.984;2022-12-29T08:19:45;98923.13;;;9.30;74.31
11712;BME280;5912;51.034;6.984;2022-12-29T08:22:11;98919.56;;;9.19;75.16
11712;BME280;5912;51.034;6.984;2022-12-29T08:24:36;98932.97;;;9.23;74.87
11712;BME280;5912;51.034;6.984;2022-12-29T08:27:01;98929.41;;;9.29;73.88
11712;BME280;5912;51.034;6.984;2022-12-29T08:29:27;98927.47;;;9.24;74.11
11712;BME280;5912;51.034;6.984;2022-12-29T08:31:52;98927.88;;;9.16;73.24
11712;BME280;5912;51.034;6.984;2022-12-29T08:34:17;98938.28;;;9.11;73.26
11712;BME280;5912;51.034;6.984;2022-12-29T08:36:42;98939.19;;;9.05;73.29
11712;BME280;5912;51.034;6.984;2022-12-29T08:39:08;98933.78;;;8.95;72.60
11712;BME280;5912;51.034;6.984;2022-12-29T08:41:33;98933.31;;;8.98;72.58
11712;BME280;5912;51.034;6.984;2022-12-29T08:43:59;98949.38;;;9.02;71.41
11712;BME280;5912;51.034;6.984;2022-12-29T08:46:24;98942.25;;;9.14;70.51
11712;BME280;5912;51.034;6.984;2022-12-29T08:48:50;98953.53;;;9.14;70.28
11712;BME280;5912;51.034;6.984;2022-12-29T08:51:17;98943.03;;;9.14;70.58
11712;BME280;5912;51.034;6.984;2022-12-29T08:53:43;98950.53;;;9.22;70.13
11712;BME280;5912;51.034;6.984;2022-12-29T08:56:09;98966.59;;;9.26;69.30
11712;BME280;5912;51.034;6.984;2022-12-29T08:58:34;98955.88;;;9.27;69.66
11712;BME280;5912;51.034;6.984;2022-12-29T09:01:00;98958.03;;;9.30;69.70
11712;BME280;5912;51.034;6.984;2022-12-29T09:03:26;98956.88;;;9.26;68.81
11712;BME280;5912;51.034;6.984;2022-12-29T09:05:52;98966.41;;;9.32;69.52
11712;BME280;5912;51.034;6.984;2022-12-29T09:08:20;98965.03;;;9.41;69.06
11712;BME280;5912;51.034;6.984;2022-12-29T09:10:46;98967.41;;;9.43;68.21
11712;BME280;5912;51.034;6.984;2022-12-29T09:13:12;98963.28;;;9.47;67.43
11712;BME280;5912;51.034;6.984;2022-12-29T09:15:38;98968.31;;;9.65;66.38
11712;BME280;5912;51.034;6.984;2022-12-29T09:18:05;98976.25;;;9.70;66.08
11712;BME280;5912;51.034;6.984;2022-12-29T09:20:30;98991.84;;;9.76;66.34
11712;BME280;5912;51.034;6.984;2022-12-29T09:22:55;98990.81;;;9.77;65.59
11712;BME280;5912;51.034;6.984;2022-12-29T09:25:21;99015.00;;;9.79;63.93
11712;BME280;5912;51.034;6.984;2022-12-29T09:27:49;99019.09;;;9.75;62.64
11712;BME280;5912;51.034;6.984;2022-12-29T09:30:15;99023.44;;;9.81;62.45
11712;BME280;5912;51.034;6.984;2022-12-29T09:32:40;99024.56;;;10.02;62.27
11712;BME280;5912;51.034;6.984;2022-12-29T09:35:06;99034.44;;;10.11;60.60
11712;BME280;5912;51.034;6.984;2022-12-29T09:37:32;99029.72;;;10.13;60.44
11712;BME280;5912;51.034;6.984;2022-12-29T09:39:57;99037.44;;;10.20;60.38
11712;BME280;5912;51.034;6.984;2022-12-29T09:42:31;99038.03;;;10.22;60.51
11712;BME280;5912;51.034;6.984;2022-12-29T09:45:15;99047.38;;;10.18;59.78
11712;BME280;5912;51.034;6.984;2022-12-29T09:47:43;99041.53;;;10.11;59.87
11712;BME280;5912;51.034;6.984;2022-12-29T09:52:59;99039.97;;;9.98;59.03
11712;BME280;5912;51.034;6.984;2022-12-29T09:55:40;99044.56;;;9.91;58.77
11712;BME280;5912;51.034;6.984;2022-12-29T10:00:48;99048.09;;;9.97;58.63
11712;BME280;5912;51.034;6.984;2022-12-29T10:03:17;99052.63;;;10.01;58.50
11712;BME280;5912;51.034;6.984;2022-12-29T10:08:26;99047.75;;;9.93;58.68
11712;BME280;5912;51.034;6.984;2022-12-29T10:10:56;99019.75;;;9.82;57.89
11712;BME280;5912;51.034;6.984;2022-12-29T10:13:33;99035.22;;;9.95;58.01
11712;BME280;5912;51.034;6.984;2022-12-29T10:16:11;99037.91;;;10.00;58.20
11712;BME280;5912;51.034;6.984;2022-12-29T10:24:15;99047.81;;;10.26;55.86
11712;BME280;5912;51.034;6.984;2022-12-29T10:26:43;99041.66;;;10.37;55.03
11712;BME280;5912;51.034;6.984;2022-12-29T10:29:28;99036.41;;;10.54;54.03
11712;BME280;5912;51.034;6.984;2022-12-29T10:32:06;99034.38;;;10.61;53.84
11712;BME280;5912;51.034;6.984;2022-12-29T10:34:41;99033.84;;;10.81;53.30
11712;BME280;5912;51.034;6.984;2022-12-29T10:39:51;99043.06;;;11.26;51.93
11712;BME280;5912;51.034;6.984;2022-12-29T10:42:37;99053.34;;;11.28;52.50
11712;BME280;5912;51.034;6.984;2022-12-29T10:45:10;99048.28;;;11.43;50.69
11712;BME280;5912;51.034;6.984;2022-12-29T10:47:40;99058.06;;;11.47;51.26
11712;BME280;5912;51.034;6.984;2022-12-29T10:50:11;99046.88;;;11.35;50.89
11712;BME280;5912;51.034;6.984;2022-12-29T10:52:38;99052.41;;;11.34;51.32
11712;BME280;5912;51.034;6.984;2022-12-29T10:55:07;99062.94;;;11.39;51.69
11712;BME280;5912;51.034;6.984;2022-12-29T10:57:42;99053.84;;;11.25;52.25
11712;BME280;5912;51.034;6.984;2022-12-29T11:00:17;99053.91;;;11.30;52.56
11712;BME280;5912;51.034;6.984;2022-12-29T11:02:57;99063.69;;;11.34;51.12
11712;BME280;5912;51.034;6.984;2022-12-29T11:05:39;99063.63;;;11.51;51.14
11712;BME280;5912;51.034;6.984;2022-12-29T11:08:14;99062.63;;;11.57;50.40
11712;BME280;5912;51.034;6.984;2022-12-29T11:10:42;99063.63;;;11.51;50.68
11712;BME280;5912;51.034;6.984;2022-12-29T11:13:24;99053.22;;;11.39;51.53
11712;BME280;5912;51.034;6.984;2022-12-29T11:15:51;99064.69;;;11.50;51.77
11712;BME280;5912;51.034;6.984;2022-12-29T11:18:23;99070.13;;;11.43;51.64
11712;BME280;5912;51.034;6.984;2022-12-29T11:20:54;99078.13;;;11.32;52.10
11712;BME280;5912;51.034;6.984;2022-12-29T11:23:34;99050.72;;;11.28;52.15
11712;BME280;5912;51.034;6.984;2022-12-29T11:26:15;99075.41;;;11.48;52.17
11712;BME280;5912;51.034;6.984;2022-12-29T11:34:08;99088.28;;;11.23;50.53
11712;BME280;5912;51.034;6.984;2022-12-29T11:36:34;99060.88;;;10.98;50.81
11712;BME280;5912;51.034;6.984;2022-12-29T11:39:02;99096.09;;;11.18;51.73
11712;BME280;5912;51.034;6.984;2022-12-29T11:41:29;99098.69;;;11.13;51.38
11712;BME280;5912;51.034;6.984;2022-12-29T11:43:58;99086.22;;;11.04;51.71
11712;BME280;5912;51.034;6.984;2022-12-29T11:46:36;99095.06;;;10.98;52.49
11712;BME280;5912;51.034;6.984;2022-12-29T11:49:03;99093.03;;;10.83;52.23
11712;BME280;5912;51.034;6.984;2022-12-29T11:51:35;99085.19;;;10.67;52.83
11712;BME280;5912;51.034;6.984;2022-12-29T11:54:04;99100.31;;;10.60;53.31
11712;BME280;5912;51.034;6.984;2022-12-29T11:56:39;99084.00;;;10.41;53.43
11712;BME280;5912;51.034;6.984;2022-12-29T11:59:38;99095.63;;;10.28;54.29
11712;BME280;5912;51.034;6.984;2022-12-29T12:02:22;99095.69;;;10.17;54.47
11712;BME280;5912;51.034;6.984;2022-12-29T12:04:53;99119.09;;;10.18;55.88
11712;BME280;5912;51.034;6.984;2022-12-29T12:09:58;98976.38;;;9.30;54.93
11712;BME280;5912;51.034;6.984;2022-12-29T12:15:49;99109.31;;;10.14;55.13
11712;BME280;5912;51.034;6.984;2022-12-29T12:18:44;99105.97;;;10.18;55.34
11712;BME280;5912;51.034;6.984;2022-12-29T12:21:23;99114.31;;;10.15;55.53
11712;BME280;5912;51.034;6.984;2022-12-29T12:26:19;99114.97;;;10.22;55.88
11712;BME280;5912;51.034;6.984;2022-12-29T12:28:53;99112.88;;;10.24;56.41
11712;BME280;5912;51.034;6.984;2022-12-29T12:31:41;99124.53;;;10.28;55.76
11712;BME280;5912;51.034;6.984;2022-12-29T12:34:13;99124.19;;;10.25;56.55
11712;BME280;5912;51.034;6.984;2022-12-29T12:39:26;99135.09;;;10.17;55.58
11712;BME280;5912;51.034;6.984;2022-12-29T12:42:05;99145.81;;;10.15;56.13
11712;BME280;5912;51.034;6.984;2022-12-29T12:58:19;99152.69;;;10.33;57.57
11712;BME280;5912;51.034;6.984;2022-12-29T13:06:45;99139.72;;;10.26;54.13
11712;BME280;5912;51.034;6.984;2022-12-29T13:09:29;99158.09;;;10.26;54.85
11712;BME280;5912;51.034;6.984;2022-12-29T13:19:48;99151.50;;;10.24;54.47
11712;BME280;5912;51.034;6.984;2022-12-29T13:22:24;99101.25;;;9.76;54.95
11712;BME280;5912;51.034;6.984;2022-12-29T13:27:45;99147.03;;;9.96;55.55
11712;BME280;5912;51.034;6.984;2022-12-29T13:30:20;99154.47;;;9.88;56.27
11712;BME280;5912;51.034;6.984;2022-12-29T13:36:00;99164.91;;;9.83;57.58
11712;BME280;5912;51.034;6.984;2022-12-29T13:38:35;99151.25;;;9.69;57.49
11712;BME280;5912;51.034;6.984;2022-12-29T13:41:08;99167.31;;;9.73;57.61
11712;BME280;5912;51.034;6.984;2022-12-29T13:43:37;99151.63;;;9.61;58.23
11712;BME280;5912;51.034;6.984;2022-12-29T13:46:09;99168.19;;;9.50;58.65
11712;BME280;5912;51.034;6.984;2022-12-29T13:49:25;99175.00;;;9.51;58.70
11712;BME280;5912;51.034;6.984;2022-12-29T13:51:56;99185.72;;;9.50;59.22
11712;BME280;5912;51.034;6.984;2022-12-29T13:54:34;99180.19;;;9.46;59.28
11712;BME280;5912;51.034;6.984;2022-12-29T13:57:10;99190.66;;;9.46;59.13
11712;BME280;5912;51.034;6.984;2022-12-29T14:07:43;99190.31;;;9.43;59.58
11712;BME280;5912;51.034;6.984;2022-12-29T14:10:36;99180.19;;;9.35;59.19
11712;BME280;5912;51.034;6.984;2022-12-29T14:13:12;99187.13;;;9.29;57.72
11712;BME280;5912;51.034;6.984;2022-12-29T14:15:39;99177.03;;;9.10;58.31
11712;BME280;5912;51.034;6.984;2022-12-29T14:18:23;99196.03;;;9.28;58.44
11712;BME280;5912;51.034;6.984;2022-12-29T14:20:55;99199.00;;;9.20;58.24
11712;BME280;5912;51.034;6.984;2022-12-29T14:31:02;99202.44;;;9.09;58.78
11712;BME280;5912;51.034;6.984;2022-12-29T14:33:31;99200.28;;;9.06;58.35
11712;BME280;5912;51.034;6.984;2022-12-29T14:36:29;99200.72;;;9.03;58.27
11712;BME280;5912;51.034;6.984;2022-12-29T14:38:58;99204.47;;;8.95;58.66
11712;BME280;5912;51.034;6.984;2022-12-29T14:41:30;99201.19;;;9.00;59.23
11712;BME280;5912;51.034;6.984;2022-12-29T14:44:00;99209.38;;;8.92;59.52
11712;BME280;5912;51.034;6.984;2022-12-29T14:46:46;99207.91;;;8.96;59.73
11712;BME280;5912;51.034;6.984;2022-12-29T14:49:18;99212.34;;;8.95;59.59
11712;BME280;5912;51.034;6.984;2022-12-29T14:51:44;99219.28;;;8.90;59.42
11712;BME280;5912;51.034;6.984;2022-12-29T14:54:49;99222.03;;;8.95;60.13
11712;BME280;5912;51.034;6.984;2022-12-29T14:57:26;99213.94;;;8.96;60.28
11712;BME280;5912;51.034;6.984;2022-12-29T14:59:55;99198.88;;;9.03;59.73
11712;BME280;5912;51.034;6.984;2022-12-29T15:02:26;99197.31;;;9.02;59.82
11712;BME280;5912;51.034;6.984;2022-12-29T15:05:00;99206.66;;;8.87;58.06
11712;BME280;5912;51.034;6.984;2022-12-29T15:07:27;99215.63;;;8.91;58.25
11712;BME280;5912;51.034;6.984;2022-12-29T15:10:06;99211.88;;;8.87;59.03
11712;BME280;5912;51.034;6.984;2022-12-29T15:12:40;99223.97;;;8.88;59.16
11712;BME280;5912;51.034;6.984;2022-12-29T15:15:19;99174.50;;;8.57;60.22
11712;BME280;5912;51.034;6.984;2022-12-29T15:17:45;99201.84;;;8.72;62.59
11712;BME280;5912;51.034;6.984;2022-12-29T15:20:23;99214.25;;;8.77;63.62
11712;BME280;5912;51.034;6.984;2022-12-29T15:22:53;99223.59;;;8.73;63.83
11712;BME280;5912;51.034;6.984;2022-12-29T15:25:19;99218.38;;;8.73;63.44
11712;BME280;5912;51.034;6.984;2022-12-29T15:27:52;99225.53;;;8.66;63.05
11712;BME280;5912;51.034;6.984;2022-12-29T15:30:18;99229.28;;;8.58;63.49
11712;BME280;5912;51.034;6.984;2022-12-29T15:32:45;99219.69;;;8.64;63.21
11712;BME280;5912;51.034;6.984;2022-12-29T15:35:33;99226.28;;;8.55;63.03
11712;BME280;5912;51.034;6.984;2022-12-29T15:38:19;99227.97;;;8.49;63.70
11712;BME280;5912;51.034;6.984;2022-12-29T15:40:45;99238.13;;;8.46;63.89
11712;BME280;5912;51.034;6.984;2022-12-29T15:43:23;99206.63;;;8.23;63.51